sensor_id;sensor_type;location;lat;lon;timestamp;P1;durP1;ratioP1;P2;durP2;ratioP2
15931;SDS011;8065;49.520;11.284;2022-09-23T00:01:44;3.57;;;2.70;;
15931;SDS011;8065;49.520;11.284;2022-09-23T00:04:10;3.10;;;2.90;;
15931;SDS011;8065;49.520;11.284;2022-09-23T00:06:37;3.87;;;2.63;;
15931;SDS011;8065;49.520;11.284;2022-09-23T00:09:04;3.83;;;2.63;;
15931;SDS011;8065;49.520;11.284;2022-09-23T00:11:30;3.20;;;2.90;;
15931;SDS011;8065;49.520;11.284;2022-09-23T00:13:58;7.20;;;3.03;;
15931;SDS011;8065;49.520;11.284;2022-09-23T00:16:26;4.37;;;2.90;;
15931;SDS011;8065;49.520;11.284;2022-09-23T00:18:53;4.70;;;3.00;;
15931;SDS011;8065;49.520;11.284;2022-09-23T00:21:21;3.53;;;3.00;;
15931;SDS011;8065;49.520;11.284;2022-09-23T00:23:49;3.67;;;2.87;;
15931;SDS011;8065;49.520;11.284;2022-09-23T00:26:16;3.77;;;3.20;;
15931;SDS011;8065;49.520;11.284;2022-09-23T00:28:44;4.53;;;2.70;;
15931;SDS011;8065;49.520;11.284;2022-09-23T00:31:13;2.87;;;2.67;;
15931;SDS011;8065;49.520;11.284;2022-09-23T00:33:41;4.93;;;2.70;;
15931;SDS011;8065;49.520;11.284;2022-09-23T00:36:08;3.03;;;2.67;;
15931;SDS011;8065;49.520;11.284;2022-09-23T00:38:39;3.40;;;2.70;;
15931;SDS011;8065;49.520;11.284;2022-09-23T00:41:06;3.83;;;2.90;;
15931;SDS011;8065;49.520;11.284;2022-09-23T00:43:37;4.03;;;2.90;;
15931;SDS011;8065;49.520;11.284;2022-09-23T00:46:05;3.03;;;2.73;;
15931;SDS011;8065;49.520;11.284;2022-09-23T00:48:35;3.47;;;3.17;;
15931;SDS011;8065;49.520;11.284;2022-09-23T00:51:04;3.77;;;3.10;;
15931;SDS011;8065;49.520;11.284;2022-09-23T00:53:34;3.20;;;2.90;;
15931;SDS011;8065;49.520;11.284;2022-09-23T00:56:02;4.37;;;2.70;;
15931;SDS011;8065;49.520;11.284;2022-09-23T00:58:32;3.93;;;3.20;;
15931;SDS011;8065;49.520;11.284;2022-09-23T01:01:02;3.57;;;3.00;;
15931;SDS011;8065;49.520;11.284;2022-09-23T01:03:29;3.40;;;3.10;;
15931;SDS011;8065;49.520;11.284;2022-09-23T01:05:58;5.50;;;3.17;;
15931;SDS011;8065;49.520;11.284;2022-09-23T01:08:24;3.57;;;3.27;;
15931;SDS011;8065;49.520;11.284;2022-09-23T01:10:56;5.10;;;2.90;;
15931;SDS011;8065;49.520;11.284;2022-09-23T01:13:31;3.07;;;2.77;;
15931;SDS011;8065;49.520;11.284;2022-09-23T01:16:06;3.33;;;3.03;;
15931;SDS011;8065;49.520;11.284;2022-09-23T01:18:39;3.63;;;3.33;;
15931;SDS011;8065;49.520;11.284;2022-09-23T01:21:14;3.93;;;3.00;;
15931;SDS011;8065;49.520;11.284;2022-09-23T01:26:59;3.30;;;3.00;;
15931;SDS011;8065;49.520;11.284;2022-09-23T01:29:48;3.00;;;2.80;;
15931;SDS011;8065;49.520;11.284;2022-09-23T01:35:38;3.33;;;2.90;;
15931;SDS011;8065;49.520;11.284;2022-09-23T01:38:13;3.37;;;3.07;;
15931;SDS011;8065;49.520;11.284;2022-09-23T01:40:47;3.90;;;3.00;;
15931;SDS011;8065;49.520;11.284;2022-09-23T01:43:18;3.90;;;3.20;;
15931;SDS011;8065;49.520;11.284;2022-09-23T01:45:53;3.40;;;2.97;;
15931;SDS011;8065;49.520;11.284;2022-09-23T01:48:25;4.40;;;3.30;;
15931;SDS011;8065;49.520;11.284;2022-09-23T01:50:59;3.40;;;3.07;;
15931;SDS011;8065;49.520;11.284;2022-09-23T01:53:31;6.17;;;3.43;;
15931;SDS011;8065;49.520;11.284;2022-09-23T01:56:04;4.23;;;3.27;;
15931;SDS011;8065;49.520;11.284;2022-09-23T01:58:35;3.63;;;3.10;;
15931;SDS011;8065;49.520;11.284;2022-09-23T02:01:07;4.20;;;3.53;;
15931;SDS011;8065;49.520;11.284;2022-09-23T02:03:40;5.27;;;2.97;;
15931;SDS011;8065;49.520;11.284;2022-09-23T02:06:12;3.60;;;3.20;;
15931;SDS011;8065;49.520;11.284;2022-09-23T02:08:45;3.60;;;3.17;;
15931;SDS011;8065;49.520;11.284;2022-09-23T02:11:16;5.10;;;3.40;;
15931;SDS011;8065;49.520;11.284;2022-09-23T02:13:45;7.40;;;3.43;;
15931;SDS011;8065;49.520;11.284;2022-09-23T02:16:19;4.83;;;3.07;;
15931;SDS011;8065;49.520;11.284;2022-09-23T02:18:52;3.23;;;2.93;;
15931;SDS011;8065;49.520;11.284;2022-09-23T02:21:22;3.60;;;3.30;;
15931;SDS011;8065;49.520;11.284;2022-09-23T02:23:54;4.63;;;3.00;;
15931;SDS011;8065;49.520;11.284;2022-09-23T02:26:29;4.40;;;3.27;;
15931;SDS011;8065;49.520;11.284;2022-09-23T02:29:01;4.80;;;3.30;;
15931;SDS011;8065;49.520;11.284;2022-09-23T02:31:35;3.30;;;3.00;;
15931;SDS011;8065;49.520;11.284;2022-09-23T02:34:14;4.50;;;3.13;;
15931;SDS011;8065;49.520;11.284;2022-09-23T02:36:48;3.70;;;3.33;;
15931;SDS011;8065;49.520;11.284;2022-09-23T02:39:21;4.13;;;3.20;;
15931;SDS011;8065;49.520;11.284;2022-09-23T02:41:54;3.53;;;3.23;;
15931;SDS011;8065;49.520;11.284;2022-09-23T02:44:23;3.50;;;3.20;;
15931;SDS011;8065;49.520;11.284;2022-09-23T02:46:52;4.00;;;3.60;;
15931;SDS011;8065;49.520;11.284;2022-09-23T02:49:22;3.43;;;3.10;;
15931;SDS011;8065;49.520;11.284;2022-09-23T02:51:51;3.60;;;3.30;;
15931;SDS011;8065;49.520;11.284;2022-09-23T02:54:19;4.17;;;3.77;;
15931;SDS011;8065;49.520;11.284;2022-09-23T02:56:49;5.23;;;3.70;;
15931;SDS011;8065;49.520;11.284;2022-09-23T02:59:17;3.70;;;3.40;;
15931;SDS011;8065;49.520;11.284;2022-09-23T03:01:51;4.50;;;3.70;;
15931;SDS011;8065;49.520;11.284;2022-09-23T03:04:28;4.07;;;3.50;;
15931;SDS011;8065;49.520;11.284;2022-09-23T03:07:08;4.97;;;3.60;;
15931;SDS011;8065;49.520;11.284;2022-09-23T03:09:44;4.43;;;3.87;;
15931;SDS011;8065;49.520;11.284;2022-09-23T03:12:19;8.63;;;3.97;;
15931;SDS011;8065;49.520;11.284;2022-09-23T03:15:00;3.90;;;3.67;;
15931;SDS011;8065;49.520;11.284;2022-09-23T03:17:35;3.73;;;3.40;;
15931;SDS011;8065;49.520;11.284;2022-09-23T03:20:10;4.20;;;3.80;;
15931;SDS011;8065;49.520;11.284;2022-09-23T03:22:43;4.80;;;3.73;;
15931;SDS011;8065;49.520;11.284;2022-09-23T03:25:14;4.93;;;3.80;;
15931;SDS011;8065;49.520;11.284;2022-09-23T03:27:44;4.50;;;4.07;;
15931;SDS011;8065;49.520;11.284;2022-09-23T03:30:11;4.17;;;3.87;;
15931;SDS011;8065;49.520;11.284;2022-09-23T03:32:38;4.50;;;3.77;;
15931;SDS011;8065;49.520;11.284;2022-09-23T03:35:10;5.30;;;3.80;;
15931;SDS011;8065;49.520;11.284;2022-09-23T03:37:38;3.90;;;3.13;;
15931;SDS011;8065;49.520;11.284;2022-09-23T03:40:11;4.53;;;3.50;;
15931;SDS011;8065;49.520;11.284;2022-09-23T03:42:41;4.60;;;3.20;;
15931;SDS011;8065;49.520;11.284;2022-09-23T03:45:09;4.13;;;3.70;;
15931;SDS011;8065;49.520;11.284;2022-09-23T03:47:41;4.23;;;3.77;;
15931;SDS011;8065;49.520;11.284;2022-09-23T03:50:07;4.53;;;3.50;;
15931;SDS011;8065;49.520;11.284;2022-09-23T03:52:37;4.47;;;3.93;;
15931;SDS011;8065;49.520;11.284;2022-09-23T03:55:04;4.13;;;3.60;;
15931;SDS011;8065;49.520;11.284;2022-09-23T03:57:31;4.07;;;3.70;;
15931;SDS011;8065;49.520;11.284;2022-09-23T03:59:58;4.33;;;3.37;;
15931;SDS011;8065;49.520;11.284;2022-09-23T04:02:24;5.33;;;3.40;;
15931;SDS011;8065;49.520;11.284;2022-09-23T04:04:51;5.87;;;3.23;;
15931;SDS011;8065;49.520;11.284;2022-09-23T04:07:19;5.57;;;3.60;;
15931;SDS011;8065;49.520;11.284;2022-09-23T04:09:45;4.20;;;3.80;;
15931;SDS011;8065;49.520;11.284;2022-09-23T04:12:13;4.10;;;3.43;;
15931;SDS011;8065;49.520;11.284;2022-09-23T04:14:41;4.77;;;3.67;;
15931;SDS011;8065;49.520;11.284;2022-09-23T04:17:07;7.53;;;4.20;;
15931;SDS011;8065;49.520;11.284;2022-09-23T04:19:34;8.00;;;3.80;;
15931;SDS011;8065;49.520;11.284;2022-09-23T04:22:01;4.63;;;4.23;;
15931;SDS011;8065;49.520;11.284;2022-09-23T04:24:29;5.57;;;4.23;;
15931;SDS011;8065;49.520;11.284;2022-09-23T04:26:56;5.37;;;4.53;;
15931;SDS011;8065;49.520;11.284;2022-09-23T04:29:23;6.57;;;4.40;;
15931;SDS011;8065;49.520;11.284;2022-09-23T04:31:51;5.73;;;4.00;;
15931;SDS011;8065;49.520;11.284;2022-09-23T04:34:18;5.73;;;4.23;;
15931;SDS011;8065;49.520;11.284;2022-09-23T04:36:45;4.90;;;4.13;;
15931;SDS011;8065;49.520;11.284;2022-09-23T04:39:13;4.43;;;4.03;;
15931;SDS011;8065;49.520;11.284;2022-09-23T04:41:42;5.13;;;4.13;;
15931;SDS011;8065;49.520;11.284;2022-09-23T04:44:09;5.67;;;4.30;;
15931;SDS011;8065;49.520;11.284;2022-09-23T04:46:36;4.70;;;4.30;;
15931;SDS011;8065;49.520;11.284;2022-09-23T04:49:04;4.80;;;4.17;;
15931;SDS011;8065;49.520;11.284;2022-09-23T04:51:30;4.70;;;4.23;;
15931;SDS011;8065;49.520;11.284;2022-09-23T04:53:57;6.17;;;4.47;;
15931;SDS011;8065;49.520;11.284;2022-09-23T04:56:26;4.70;;;4.23;;
15931;SDS011;8065;49.520;11.284;2022-09-23T04:58:55;5.20;;;4.40;;
15931;SDS011;8065;49.520;11.284;2022-09-23T05:01:22;4.50;;;4.07;;
15931;SDS011;8065;49.520;11.284;2022-09-23T05:03:51;6.77;;;4.33;;
15931;SDS011;8065;49.520;11.284;2022-09-23T05:06:19;6.27;;;4.90;;
15931;SDS011;8065;49.520;11.284;2022-09-23T05:08:46;4.93;;;4.23;;
15931;SDS011;8065;49.520;11.284;2022-09-23T05:11:14;6.47;;;4.50;;
15931;SDS011;8065;49.520;11.284;2022-09-23T05:13:41;6.87;;;4.40;;
15931;SDS011;8065;49.520;11.284;2022-09-23T05:16:09;5.17;;;4.20;;
15931;SDS011;8065;49.520;11.284;2022-09-23T05:18:37;5.50;;;4.53;;
15931;SDS011;8065;49.520;11.284;2022-09-23T05:21:06;8.73;;;4.40;;
15931;SDS011;8065;49.520;11.284;2022-09-23T05:23:33;4.70;;;4.20;;
15931;SDS011;8065;49.520;11.284;2022-09-23T05:26:02;5.13;;;4.63;;
15931;SDS011;8065;49.520;11.284;2022-09-23T05:28:30;5.03;;;4.07;;
15931;SDS011;8065;49.520;11.284;2022-09-23T05:31:00;5.40;;;4.83;;
15931;SDS011;8065;49.520;11.284;2022-09-23T05:33:29;4.90;;;4.40;;
15931;SDS011;8065;49.520;11.284;2022-09-23T05:35:55;6.97;;;5.20;;
15931;SDS011;8065;49.520;11.284;2022-09-23T05:38:22;7.23;;;4.90;;
15931;SDS011;8065;49.520;11.284;2022-09-23T05:40:53;6.10;;;4.60;;
15931;SDS011;8065;49.520;11.284;2022-09-23T05:43:20;6.67;;;5.10;;
15931;SDS011;8065;49.520;11.284;2022-09-23T05:45:47;5.37;;;4.87;;
15931;SDS011;8065;49.520;11.284;2022-09-23T05:48:14;6.00;;;5.40;;
15931;SDS011;8065;49.520;11.284;2022-09-23T05:50:48;5.57;;;5.07;;
15931;SDS011;8065;49.520;11.284;2022-09-23T05:53:15;6.73;;;5.90;;
15931;SDS011;8065;49.520;11.284;2022-09-23T05:55:42;7.03;;;5.50;;
15931;SDS011;8065;49.520;11.284;2022-09-23T05:58:08;5.70;;;5.20;;
15931;SDS011;8065;49.520;11.284;2022-09-23T06:00:37;7.63;;;6.13;;
15931;SDS011;8065;49.520;11.284;2022-09-23T06:03:04;6.23;;;5.63;;
15931;SDS011;8065;49.520;11.284;2022-09-23T06:05:30;6.40;;;5.80;;
15931;SDS011;8065;49.520;11.284;2022-09-23T06:07:58;8.03;;;5.63;;
15931;SDS011;8065;49.520;11.284;2022-09-23T06:10:25;6.33;;;5.23;;
15931;SDS011;8065;49.520;11.284;2022-09-23T06:12:52;6.23;;;5.33;;
15931;SDS011;8065;49.520;11.284;2022-09-23T06:15:18;6.80;;;5.73;;
15931;SDS011;8065;49.520;11.284;2022-09-23T06:17:47;5.47;;;4.90;;
15931;SDS011;8065;49.520;11.284;2022-09-23T06:20:14;6.33;;;5.10;;
15931;SDS011;8065;49.520;11.284;2022-09-23T06:22:40;6.23;;;5.57;;
15931;SDS011;8065;49.520;11.284;2022-09-23T06:25:08;6.47;;;5.70;;
15931;SDS011;8065;49.520;11.284;2022-09-23T06:27:38;9.87;;;5.90;;
15931;SDS011;8065;49.520;11.284;2022-09-23T06:30:05;7.83;;;5.53;;
15931;SDS011;8065;49.520;11.284;2022-09-23T06:32:32;5.93;;;5.33;;
15931;SDS011;8065;49.520;11.284;2022-09-23T06:34:58;6.30;;;5.70;;
15931;SDS011;8065;49.520;11.284;2022-09-23T06:37:25;6.33;;;5.30;;
15931;SDS011;8065;49.520;11.284;2022-09-23T06:39:51;6.30;;;5.63;;
15931;SDS011;8065;49.520;11.284;2022-09-23T06:42:20;6.50;;;5.83;;
15931;SDS011;8065;49.520;11.284;2022-09-23T06:44:47;5.90;;;5.37;;
15931;SDS011;8065;49.520;11.284;2022-09-23T06:47:14;7.20;;;5.70;;
15931;SDS011;8065;49.520;11.284;2022-09-23T06:49:40;6.00;;;5.40;;
15931;SDS011;8065;49.520;11.284;2022-09-23T06:52:07;7.90;;;5.90;;
15931;SDS011;8065;49.520;11.284;2022-09-23T06:54:33;8.00;;;5.83;;
15931;SDS011;8065;49.520;11.284;2022-09-23T06:57:01;5.90;;;5.30;;
15931;SDS011;8065;49.520;11.284;2022-09-23T06:59:29;6.20;;;5.50;;
15931;SDS011;8065;49.520;11.284;2022-09-23T07:01:55;7.60;;;5.80;;
15931;SDS011;8065;49.520;11.284;2022-09-23T07:04:22;6.57;;;5.70;;
15931;SDS011;8065;49.520;11.284;2022-09-23T07:06:49;6.60;;;5.80;;
15931;SDS011;8065;49.520;11.284;2022-09-23T07:09:15;8.03;;;5.97;;
15931;SDS011;8065;49.520;11.284;2022-09-23T07:11:42;6.63;;;5.97;;
15931;SDS011;8065;49.520;11.284;2022-09-23T07:14:08;7.87;;;5.43;;
15931;SDS011;8065;49.520;11.284;2022-09-23T07:16:36;7.37;;;5.43;;
15931;SDS011;8065;49.520;11.284;2022-09-23T07:19:02;6.50;;;5.27;;
15931;SDS011;8065;49.520;11.284;2022-09-23T07:21:29;6.70;;;5.43;;
15931;SDS011;8065;49.520;11.284;2022-09-23T07:23:56;6.13;;;4.90;;
15931;SDS011;8065;49.520;11.284;2022-09-23T07:26:23;6.10;;;5.50;;
15931;SDS011;8065;49.520;11.284;2022-09-23T07:28:51;6.83;;;4.93;;
15931;SDS011;8065;49.520;11.284;2022-09-23T07:31:19;7.00;;;5.17;;
15931;SDS011;8065;49.520;11.284;2022-09-23T07:33:54;7.80;;;5.20;;
15931;SDS011;8065;49.520;11.284;2022-09-23T07:36:21;6.70;;;5.00;;
15931;SDS011;8065;49.520;11.284;2022-09-23T07:38:47;5.40;;;4.90;;
15931;SDS011;8065;49.520;11.284;2022-09-23T07:41:15;6.80;;;4.80;;
15931;SDS011;8065;49.520;11.284;2022-09-23T07:43:42;5.13;;;4.50;;
15931;SDS011;8065;49.520;11.284;2022-09-23T07:46:12;4.93;;;4.53;;
15931;SDS011;8065;49.520;11.284;2022-09-23T07:48:40;5.43;;;4.80;;
15931;SDS011;8065;49.520;11.284;2022-09-23T07:51:09;4.70;;;4.30;;
15931;SDS011;8065;49.520;11.284;2022-09-23T07:53:37;4.90;;;4.40;;
15931;SDS011;8065;49.520;11.284;2022-09-23T07:56:04;11.03;;;4.63;;
15931;SDS011;8065;49.520;11.284;2022-09-23T07:58:30;5.87;;;4.23;;
15931;SDS011;8065;49.520;11.284;2022-09-23T08:01:00;4.87;;;4.37;;
15931;SDS011;8065;49.520;11.284;2022-09-23T08:03:28;4.87;;;4.30;;
15931;SDS011;8065;49.520;11.284;2022-09-23T08:06:01;5.87;;;4.50;;
15931;SDS011;8065;49.520;11.284;2022-09-23T08:08:30;4.97;;;4.53;;
15931;SDS011;8065;49.520;11.284;2022-09-23T08:10:59;4.53;;;4.17;;
15931;SDS011;8065;49.520;11.284;2022-09-23T08:13:26;4.30;;;3.90;;
15931;SDS011;8065;49.520;11.284;2022-09-23T08:15:52;5.17;;;4.43;;
15931;SDS011;8065;49.520;11.284;2022-09-23T08:18:19;4.83;;;4.37;;
15931;SDS011;8065;49.520;11.284;2022-09-23T08:20:45;5.67;;;3.60;;
15931;SDS011;8065;49.520;11.284;2022-09-23T08:23:12;4.03;;;3.60;;
15931;SDS011;8065;49.520;11.284;2022-09-23T08:25:41;4.30;;;3.60;;
15931;SDS011;8065;49.520;11.284;2022-09-23T08:28:09;4.17;;;3.77;;
15931;SDS011;8065;49.520;11.284;2022-09-23T08:30:37;4.50;;;3.60;;
15931;SDS011;8065;49.520;11.284;2022-09-23T08:33:04;4.47;;;3.90;;
15931;SDS011;8065;49.520;11.284;2022-09-23T08:35:30;5.27;;;4.40;;
15931;SDS011;8065;49.520;11.284;2022-09-23T08:37:57;4.67;;;3.90;;
15931;SDS011;8065;49.520;11.284;2022-09-23T08:40:23;5.27;;;4.00;;
15931;SDS011;8065;49.520;11.284;2022-09-23T08:42:51;5.77;;;4.20;;
15931;SDS011;8065;49.520;11.284;2022-09-23T08:45:18;7.20;;;3.80;;
15931;SDS011;8065;49.520;11.284;2022-09-23T08:47:50;4.03;;;3.70;;
15931;SDS011;8065;49.520;11.284;2022-09-23T08:50:21;3.90;;;3.57;;
15931;SDS011;8065;49.520;11.284;2022-09-23T08:52:49;3.30;;;3.00;;
15931;SDS011;8065;49.520;11.284;2022-09-23T08:55:19;4.70;;;3.23;;
15931;SDS011;8065;49.520;11.284;2022-09-23T08:58:00;3.63;;;3.33;;
15931;SDS011;8065;49.520;11.284;2022-09-23T09:00:34;3.90;;;3.10;;
15931;SDS011;8065;49.520;11.284;2022-09-23T09:03:11;3.30;;;3.00;;
15931;SDS011;8065;49.520;11.284;2022-09-23T09:05:44;3.00;;;2.70;;
15931;SDS011;8065;49.520;11.284;2022-09-23T09:08:12;3.07;;;2.87;;
15931;SDS011;8065;49.520;11.284;2022-09-23T09:10:39;2.90;;;2.70;;
15931;SDS011;8065;49.520;11.284;2022-09-23T09:13:14;3.50;;;2.77;;
15931;SDS011;8065;49.520;11.284;2022-09-23T09:15:51;2.77;;;2.47;;
15931;SDS011;8065;49.520;11.284;2022-09-23T09:18:39;4.67;;;2.60;;
15931;SDS011;8065;49.520;11.284;2022-09-23T09:21:14;2.93;;;2.40;;
15931;SDS011;8065;49.520;11.284;2022-09-23T09:23:42;2.90;;;2.40;;
15931;SDS011;8065;49.520;11.284;2022-09-23T09:26:16;2.40;;;2.00;;
15931;SDS011;8065;49.520;11.284;2022-09-23T09:28:47;2.30;;;2.10;;
15931;SDS011;8065;49.520;11.284;2022-09-23T09:31:19;2.47;;;2.27;;
15931;SDS011;8065;49.520;11.284;2022-09-23T09:33:52;1.63;;;1.50;;
15931;SDS011;8065;49.520;11.284;2022-09-23T09:36:22;2.37;;;1.30;;
15931;SDS011;8065;49.520;11.284;2022-09-23T09:38:57;1.40;;;1.30;;
15931;SDS011;8065;49.520;11.284;2022-09-23T09:41:25;1.30;;;1.20;;
15931;SDS011;8065;49.520;11.284;2022-09-23T09:43:56;3.07;;;1.43;;
15931;SDS011;8065;49.520;11.284;2022-09-23T09:46:35;1.20;;;1.20;;
15931;SDS011;8065;49.520;11.284;2022-09-23T09:49:13;1.20;;;1.20;;
15931;SDS011;8065;49.520;11.284;2022-09-23T09:51:47;1.10;;;1.10;;
15931;SDS011;8065;49.520;11.284;2022-09-23T09:54:27;2.10;;;1.30;;
15931;SDS011;8065;49.520;11.284;2022-09-23T09:56:55;1.50;;;1.40;;
15931;SDS011;8065;49.520;11.284;2022-09-23T09:59:24;1.33;;;1.23;;
15931;SDS011;8065;49.520;11.284;2022-09-23T10:04:38;1.50;;;1.40;;
15931;SDS011;8065;49.520;11.284;2022-09-23T10:07:06;1.17;;;1.10;;
15931;SDS011;8065;49.520;11.284;2022-09-23T10:09:37;1.70;;;1.60;;
15931;SDS011;8065;49.520;11.284;2022-09-23T10:12:10;1.57;;;1.47;;
15931;SDS011;8065;49.520;11.284;2022-09-23T10:14:40;2.30;;;1.00;;
15931;SDS011;8065;49.520;11.284;2022-09-23T10:17:06;1.00;;;1.00;;
15931;SDS011;8065;49.520;11.284;2022-09-23T10:19:42;1.30;;;1.20;;
15931;SDS011;8065;49.520;11.284;2022-09-23T10:22:15;1.53;;;1.43;;
15931;SDS011;8065;49.520;11.284;2022-09-23T10:24:49;1.23;;;1.20;;
15931;SDS011;8065;49.520;11.284;2022-09-23T10:27:24;1.37;;;1.23;;
15931;SDS011;8065;49.520;11.284;2022-09-23T10:29:57;1.50;;;1.40;;
15931;SDS011;8065;49.520;11.284;2022-09-23T10:32:26;1.10;;;1.10;;
15931;SDS011;8065;49.520;11.284;2022-09-23T10:34:55;1.40;;;1.30;;
15931;SDS011;8065;49.520;11.284;2022-09-23T10:37:29;1.33;;;1.23;;
15931;SDS011;8065;49.520;11.284;2022-09-23T10:39:58;1.23;;;1.13;;
15931;SDS011;8065;49.520;11.284;2022-09-23T10:42:51;1.33;;;1.30;;
15931;SDS011;8065;49.520;11.284;2022-09-23T10:45:44;1.60;;;1.30;;
15931;SDS011;8065;49.520;11.284;2022-09-23T10:48:34;1.47;;;1.37;;
15931;SDS011;8065;49.520;11.284;2022-09-23T10:51:15;1.57;;;1.30;;
15931;SDS011;8065;49.520;11.284;2022-09-23T10:53:49;1.50;;;1.40;;
15931;SDS011;8065;49.520;11.284;2022-09-23T10:56:28;1.60;;;1.50;;
15931;SDS011;8065;49.520;11.284;2022-09-23T10:59:17;1.37;;;1.27;;
15931;SDS011;8065;49.520;11.284;2022-09-23T11:02:20;1.87;;;1.17;;
15931;SDS011;8065;49.520;11.284;2022-09-23T11:05:04;1.13;;;1.13;;
15931;SDS011;8065;49.520;11.284;2022-09-23T11:07:44;1.50;;;1.40;;
15931;SDS011;8065;49.520;11.284;2022-09-23T11:13:37;1.43;;;1.30;;
15931;SDS011;8065;49.520;11.284;2022-09-23T11:16:18;2.63;;;1.43;;
15931;SDS011;8065;49.520;11.284;2022-09-23T11:19:01;3.77;;;1.70;;
15931;SDS011;8065;49.520;11.284;2022-09-23T11:21:44;1.50;;;1.40;;
15931;SDS011;8065;49.520;11.284;2022-09-23T11:24:30;1.10;;;1.10;;
15931;SDS011;8065;49.520;11.284;2022-09-23T11:27:16;1.20;;;1.20;;
15931;SDS011;8065;49.520;11.284;2022-09-23T11:29:59;2.00;;;1.27;;
15931;SDS011;8065;49.520;11.284;2022-09-23T11:35:46;1.33;;;1.30;;
15931;SDS011;8065;49.520;11.284;2022-09-23T11:38:16;1.90;;;1.40;;
15931;SDS011;8065;49.520;11.284;2022-09-23T11:40:50;1.50;;;1.40;;
15931;SDS011;8065;49.520;11.284;2022-09-23T11:43:20;2.53;;;1.17;;
15931;SDS011;8065;49.520;11.284;2022-09-23T11:45:50;1.60;;;1.27;;
15931;SDS011;8065;49.520;11.284;2022-09-23T11:48:24;1.20;;;1.20;;
15931;SDS011;8065;49.520;11.284;2022-09-23T11:50:57;1.20;;;1.20;;
15931;SDS011;8065;49.520;11.284;2022-09-23T11:53:30;1.20;;;1.03;;
15931;SDS011;8065;49.520;11.284;2022-09-23T11:56:04;1.10;;;1.10;;
15931;SDS011;8065;49.520;11.284;2022-09-23T11:58:36;1.10;;;1.10;;
15931;SDS011;8065;49.520;11.284;2022-09-23T12:01:08;1.40;;;1.10;;
15931;SDS011;8065;49.520;11.284;2022-09-23T12:03:43;1.10;;;1.10;;
15931;SDS011;8065;49.520;11.284;2022-09-23T12:06:16;1.30;;;1.30;;
15931;SDS011;8065;49.520;11.284;2022-09-23T12:08:47;1.30;;;1.20;;
15931;SDS011;8065;49.520;11.284;2022-09-23T12:11:19;1.97;;;1.27;;
15931;SDS011;8065;49.520;11.284;2022-09-23T12:13:52;1.47;;;1.20;;
15931;SDS011;8065;49.520;11.284;2022-09-23T12:16:40;1.20;;;1.10;;
15931;SDS011;8065;49.520;11.284;2022-09-23T12:22:34;1.00;;;1.00;;
15931;SDS011;8065;49.520;11.284;2022-09-23T12:25:22;0.90;;;0.90;;
15931;SDS011;8065;49.520;11.284;2022-09-23T12:27:59;1.73;;;1.20;;
15931;SDS011;8065;49.520;11.284;2022-09-23T12:30:29;1.47;;;1.37;;
15931;SDS011;8065;49.520;11.284;2022-09-23T12:33:05;1.20;;;1.20;;
15931;SDS011;8065;49.520;11.284;2022-09-23T12:35:35;2.63;;;1.30;;
15931;SDS011;8065;49.520;11.284;2022-09-23T12:38:12;1.17;;;1.17;;
15931;SDS011;8065;49.520;11.284;2022-09-23T12:40:43;0.90;;;0.90;;
15931;SDS011;8065;49.520;11.284;2022-09-23T12:43:16;1.70;;;1.07;;
15931;SDS011;8065;49.520;11.284;2022-09-23T12:46:20;1.23;;;0.90;;
15931;SDS011;8065;49.520;11.284;2022-09-23T12:49:02;0.80;;;0.80;;
15931;SDS011;8065;49.520;11.284;2022-09-23T12:51:31;2.73;;;1.20;;
15931;SDS011;8065;49.520;11.284;2022-09-23T12:56:57;1.10;;;1.00;;
15931;SDS011;8065;49.520;11.284;2022-09-23T12:59:25;1.03;;;1.00;;
15931;SDS011;8065;49.520;11.284;2022-09-23T13:01:53;1.10;;;1.10;;
15931;SDS011;8065;49.520;11.284;2022-09-23T13:04:33;1.10;;;1.00;;
15931;SDS011;8065;49.520;11.284;2022-09-23T13:07:25;1.30;;;1.30;;
15931;SDS011;8065;49.520;11.284;2022-09-23T13:09:58;1.47;;;1.10;;
15931;SDS011;8065;49.520;11.284;2022-09-23T13:12:33;1.07;;;1.07;;
15931;SDS011;8065;49.520;11.284;2022-09-23T13:15:04;1.47;;;1.10;;
15931;SDS011;8065;49.520;11.284;2022-09-23T13:17:40;0.93;;;0.93;;
15931;SDS011;8065;49.520;11.284;2022-09-23T13:20:32;1.00;;;1.00;;
15931;SDS011;8065;49.520;11.284;2022-09-23T13:25:48;0.90;;;0.90;;
15931;SDS011;8065;49.520;11.284;2022-09-23T13:28:22;2.00;;;0.90;;
15931;SDS011;8065;49.520;11.284;2022-09-23T13:30:52;0.80;;;0.80;;
15931;SDS011;8065;49.520;11.284;2022-09-23T13:33:21;0.90;;;0.90;;
15931;SDS011;8065;49.520;11.284;2022-09-23T13:35:53;0.90;;;0.90;;
15931;SDS011;8065;49.520;11.284;2022-09-23T13:38:25;1.70;;;0.90;;
15931;SDS011;8065;49.520;11.284;2022-09-23T13:40:57;0.83;;;0.83;;
15931;SDS011;8065;49.520;11.284;2022-09-23T13:43:26;0.70;;;0.70;;
15931;SDS011;8065;49.520;11.284;2022-09-23T13:45:56;1.43;;;0.80;;
15931;SDS011;8065;49.520;11.284;2022-09-23T13:48:24;0.80;;;0.80;;
15931;SDS011;8065;49.520;11.284;2022-09-23T13:50:53;3.07;;;1.00;;
15931;SDS011;8065;49.520;11.284;2022-09-23T13:53:21;2.47;;;1.13;;
15931;SDS011;8065;49.520;11.284;2022-09-23T13:56:02;0.80;;;0.80;;
15931;SDS011;8065;49.520;11.284;2022-09-23T13:58:30;1.20;;;1.10;;
15931;SDS011;8065;49.520;11.284;2022-09-23T14:00:58;0.80;;;0.80;;
15931;SDS011;8065;49.520;11.284;2022-09-23T14:03:26;0.97;;;0.97;;
15931;SDS011;8065;49.520;11.284;2022-09-23T14:05:55;1.10;;;1.10;;
15931;SDS011;8065;49.520;11.284;2022-09-23T14:08:23;1.10;;;1.00;;
15931;SDS011;8065;49.520;11.284;2022-09-23T14:10:50;1.03;;;1.00;;
15931;SDS011;8065;49.520;11.284;2022-09-23T14:13:20;1.27;;;1.10;;
15931;SDS011;8065;49.520;11.284;2022-09-23T14:15:49;2.33;;;1.10;;
15931;SDS011;8065;49.520;11.284;2022-09-23T14:18:18;1.00;;;1.00;;
15931;SDS011;8065;49.520;11.284;2022-09-23T14:20:53;1.17;;;1.10;;
15931;SDS011;8065;49.520;11.284;2022-09-23T14:23:19;1.07;;;1.07;;
15931;SDS011;8065;49.520;11.284;2022-09-23T14:25:46;1.80;;;1.20;;
15931;SDS011;8065;49.520;11.284;2022-09-23T14:28:14;1.43;;;1.00;;
15931;SDS011;8065;49.520;11.284;2022-09-23T14:30:44;1.20;;;1.20;;
15931;SDS011;8065;49.520;11.284;2022-09-23T14:33:15;1.20;;;1.20;;
15931;SDS011;8065;49.520;11.284;2022-09-23T14:35:46;1.00;;;1.00;;
15931;SDS011;8065;49.520;11.284;2022-09-23T14:38:23;1.00;;;1.00;;
15931;SDS011;8065;49.520;11.284;2022-09-23T14:41:12;1.10;;;1.10;;
15931;SDS011;8065;49.520;11.284;2022-09-23T14:43:50;1.00;;;1.00;;
15931;SDS011;8065;49.520;11.284;2022-09-23T14:46:21;1.17;;;1.17;;
15931;SDS011;8065;49.520;11.284;2022-09-23T14:48:50;1.20;;;1.20;;
15931;SDS011;8065;49.520;11.284;2022-09-23T14:51:20;2.83;;;1.20;;
15931;SDS011;8065;49.520;11.284;2022-09-23T14:53:53;1.10;;;1.10;;
15931;SDS011;8065;49.520;11.284;2022-09-23T14:56:20;1.40;;;1.30;;
15931;SDS011;8065;49.520;11.284;2022-09-23T14:58:49;3.20;;;1.30;;
15931;SDS011;8065;49.520;11.284;2022-09-23T15:01:25;1.37;;;1.10;;
15931;SDS011;8065;49.520;11.284;2022-09-23T15:03:57;1.10;;;1.10;;
15931;SDS011;8065;49.520;11.284;2022-09-23T15:06:25;1.80;;;1.20;;
15931;SDS011;8065;49.520;11.284;2022-09-23T15:08:53;1.20;;;1.20;;
15931;SDS011;8065;49.520;11.284;2022-09-23T15:11:20;1.10;;;1.10;;
15931;SDS011;8065;49.520;11.284;2022-09-23T15:13:48;1.40;;;1.30;;
15931;SDS011;8065;49.520;11.284;2022-09-23T15:16:20;1.37;;;1.27;;
15931;SDS011;8065;49.520;11.284;2022-09-23T15:18:53;1.37;;;1.30;;
15931;SDS011;8065;49.520;11.284;2022-09-23T15:21:21;1.23;;;1.13;;
15931;SDS011;8065;49.520;11.284;2022-09-23T15:23:50;1.70;;;1.20;;
15931;SDS011;8065;49.520;11.284;2022-09-23T15:26:19;1.30;;;1.30;;
15931;SDS011;8065;49.520;11.284;2022-09-23T15:28:48;1.50;;;1.27;;
15931;SDS011;8065;49.520;11.284;2022-09-23T15:31:16;1.63;;;1.40;;
15931;SDS011;8065;49.520;11.284;2022-09-23T15:33:44;1.40;;;1.30;;
15931;SDS011;8065;49.520;11.284;2022-09-23T15:36:15;1.30;;;1.20;;